sensor_id;sensor_type;location;lat;lon;timestamp;pressure;altitude;pressure_sealevel;temperature;humidity
28008;BME280;15333;50.010;20.020;2023-02-24T00:00:12;98192.34;;;6.82;92.32
28008;BME280;15333;50.010;20.020;2023-02-24T00:03:46;98185.56;;;6.78;93.05
28008;BME280;15333;50.010;20.020;2023-02-24T00:06:47;98178.25;;;6.82;93.21
28008;BME280;15333;50.010;20.020;2023-02-24T00:09:48;98175.22;;;6.99;91.77
28008;BME280;15333;50.010;20.020;2023-02-24T00:12:49;98171.16;;;7.06;92.35
28008;BME280;15333;50.010;20.020;2023-02-24T00:16:03;98168.59;;;7.17;90.58
28008;BME280;15333;50.010;20.020;2023-02-24T00:19:04;98167.56;;;7.07;91.04
28008;BME280;15333;50.010;20.020;2023-02-24T00:22:07;98163.97;;;6.95;92.08
28008;BME280;15333;50.010;20.020;2023-02-24T00:25:08;98154.38;;;6.93;92.01
28008;BME280;15333;50.010;20.020;2023-02-24T00:28:09;98158.94;;;6.91;92.01
28008;BME280;15333;50.010;20.020;2023-02-24T00:31:17;98156.91;;;7.07;91.93
28008;BME280;15333;50.010;20.020;2023-02-24T00:34:18;98151.44;;;7.21;90.54
28008;BME280;15333;50.010;20.020;2023-02-24T00:37:19;98149.59;;;7.34;89.63
28008;BME280;15333;50.010;20.020;2023-02-24T00:40:23;98146.47;;;7.40;89.09
28008;BME280;15333;50.010;20.020;2023-02-24T00:43:24;98147.41;;;7.52;88.74
28008;BME280;15333;50.010;20.020;2023-02-24T00:46:25;98141.00;;;7.55;88.53
28008;BME280;15333;50.010;20.020;2023-02-24T00:49:31;98133.69;;;7.69;87.98
28008;BME280;15333;50.010;20.020;2023-02-24T00:52:33;98133.53;;;7.60;87.69
28008;BME280;15333;50.010;20.020;2023-02-24T00:55:34;98123.69;;;7.60;88.10
28008;BME280;15333;50.010;20.020;2023-02-24T00:58:40;98125.81;;;7.68;87.64
28008;BME280;15333;50.010;20.020;2023-02-24T01:01:42;98110.34;;;7.73;86.98
28008;BME280;15333;50.010;20.020;2023-02-24T01:04:44;98105.13;;;7.71;87.21
28008;BME280;15333;50.010;20.020;2023-02-24T01:07:47;98109.38;;;7.74;87.33
28008;BME280;15333;50.010;20.020;2023-02-24T01:10:58;98106.59;;;7.75;87.54
28008;BME280;15333;50.010;20.020;2023-02-24T01:14:21;98098.97;;;7.82;87.14
28008;BME280;15333;50.010;20.020;2023-02-24T01:17:22;98099.13;;;7.80;86.64
28008;BME280;15333;50.010;20.020;2023-02-24T01:20:25;98098.16;;;7.81;87.04
28008;BME280;15333;50.010;20.020;2023-02-24T01:23:29;98094.19;;;7.87;86.51
28008;BME280;15333;50.010;20.020;2023-02-24T01:26:30;98094.19;;;7.87;86.47
28008;BME280;15333;50.010;20.020;2023-02-24T01:29:31;98097.81;;;7.86;86.66
28008;BME280;15333;50.010;20.020;2023-02-24T01:32:32;98092.22;;;7.89;86.28
28008;BME280;15333;50.010;20.020;2023-02-24T01:35:36;98089.53;;;7.78;86.79
28008;BME280;15333;50.010;20.020;2023-02-24T01:38:37;98080.59;;;7.79;86.41
28008;BME280;15333;50.010;20.020;2023-02-24T01:41:48;98079.44;;;7.94;86.24
28008;BME280;15333;50.010;20.020;2023-02-24T01:47:52;98075.47;;;7.76;87.17
28008;BME280;15333;50.010;20.020;2023-02-24T01:50:57;98073.56;;;7.78;86.43
28008;BME280;15333;50.010;20.020;2023-02-24T01:53:58;98061.19;;;7.77;86.34
28008;BME280;15333;50.010;20.020;2023-02-24T01:57:00;98073.38;;;7.68;86.85
28008;BME280;15333;50.010;20.020;2023-02-24T02:00:07;98065.75;;;7.64;87.01
28008;BME280;15333;50.010;20.020;2023-02-24T02:03:26;98063.47;;;7.70;87.28
28008;BME280;15333;50.010;20.020;2023-02-24T02:06:28;98063.38;;;7.72;87.62
28008;BME280;15333;50.010;20.020;2023-02-24T02:09:29;98053.69;;;7.71;87.50
28008;BME280;15333;50.010;20.020;2023-02-24T02:12:33;98046.81;;;7.79;87.22
28008;BME280;15333;50.010;20.020;2023-02-24T02:15:53;98044.03;;;7.92;86.33
28008;BME280;15333;50.010;20.020;2023-02-24T02:22:59;98040.94;;;8.09;85.23
28008;BME280;15333;50.010;20.020;2023-02-24T02:26:26;98034.88;;;8.18;85.14
28008;BME280;15333;50.010;20.020;2023-02-24T02:36:29;98026.09;;;8.74;81.69
28008;BME280;15333;50.010;20.020;2023-02-24T02:42:45;98019.63;;;8.76;81.60
28008;BME280;15333;50.010;20.020;2023-02-24T02:45:55;98019.13;;;8.82;80.95
28008;BME280;15333;50.010;20.020;2023-02-24T02:48:58;98016.00;;;8.77;81.06
28008;BME280;15333;50.010;20.020;2023-02-24T02:52:06;98014.56;;;8.62;82.16
28008;BME280;15333;50.010;20.020;2023-02-24T02:55:17;98012.50;;;8.66;81.60
28008;BME280;15333;50.010;20.020;2023-02-24T02:58:27;98014.44;;;8.63;82.12
28008;BME280;15333;50.010;20.020;2023-02-24T03:01:34;98019.63;;;8.76;81.38
28008;BME280;15333;50.010;20.020;2023-02-24T03:04:40;98010.53;;;8.68;81.61
28008;BME280;15333;50.010;20.020;2023-02-24T03:07:46;98010.44;;;8.69;81.72
28008;BME280;15333;50.010;20.020;2023-02-24T03:10:51;98010.53;;;8.68;82.71
28008;BME280;15333;50.010;20.020;2023-02-24T03:13:55;98007.19;;;8.66;83.33
28008;BME280;15333;50.010;20.020;2023-02-24T03:16:58;98004.38;;;8.56;84.60
28008;BME280;15333;50.010;20.020;2023-02-24T03:20:08;98000.53;;;8.38;85.47
28008;BME280;15333;50.010;20.020;2023-02-24T03:23:27;98003.44;;;8.35;86.81
28008;BME280;15333;50.010;20.020;2023-02-24T03:27:05;98003.41;;;8.23;88.10
28008;BME280;15333;50.010;20.020;2023-02-24T03:30:18;98000.25;;;8.07;90.23
28008;BME280;15333;50.010;20.020;2023-02-24T03:33:27;97998.03;;;7.90;92.96
28008;BME280;15333;50.010;20.020;2023-02-24T03:36:32;97992.66;;;7.68;95.67
28008;BME280;15333;50.010;20.020;2023-02-24T03:39:33;97995.50;;;7.54;97.84
28008;BME280;15333;50.010;20.020;2023-02-24T03:42:51;97996.56;;;7.40;100.00
28008;BME280;15333;50.010;20.020;2023-02-24T03:45:54;97995.91;;;7.25;100.00
28008;BME280;15333;50.010;20.020;2023-02-24T03:49:09;97990.44;;;7.16;100.00
28008;BME280;15333;50.010;20.020;2023-02-24T03:52:39;97983.88;;;7.08;100.00
28008;BME280;15333;50.010;20.020;2023-02-24T03:59:08;97971.31;;;6.87;100.00
28008;BME280;15333;50.010;20.020;2023-02-24T04:02:33;97960.59;;;6.76;100.00
28008;BME280;15333;50.010;20.020;2023-02-24T04:05:45;97965.91;;;6.76;100.00
28008;BME280;15333;50.010;20.020;2023-02-24T04:09:06;97968.06;;;6.71;100.00
28008;BME280;15333;50.010;20.020;2023-02-24T04:12:33;97962.75;;;6.71;100.00
28008;BME280;15333;50.010;20.020;2023-02-24T04:15:42;97959.78;;;6.62;100.00
28008;BME280;15333;50.010;20.020;2023-02-24T04:18:49;97951.31;;;6.57;100.00
28008;BME280;15333;50.010;20.020;2023-02-24T04:21:53;97951.81;;;6.62;100.00
28008;BME280;15333;50.010;20.020;2023-02-24T04:25:00;97940.50;;;6.48;100.00
28008;BME280;15333;50.010;20.020;2023-02-24T04:28:03;97938.59;;;6.50;100.00
28008;BME280;15333;50.010;20.020;2023-02-24T04:31:09;97932.00;;;6.43;100.00
28008;BME280;15333;50.010;20.020;2023-02-24T04:34:17;97924.16;;;6.41;100.00
28008;BME280;15333;50.010;20.020;2023-02-24T04:37:20;97934.06;;;6.39;100.00
28008;BME280;15333;50.010;20.020;2023-02-24T04:40:22;97931.16;;;6.42;100.00
28008;BME280;15333;50.010;20.020;2023-02-24T04:43:23;97925.34;;;6.37;100.00
28008;BME280;15333;50.010;20.020;2023-02-24T04:46:24;97924.38;;;6.38;100.00
28008;BME280;15333;50.010;20.020;2023-02-24T04:49:26;97925.25;;;6.26;100.00
28008;BME280;15333;50.010;20.020;2023-02-24T04:52:27;97924.22;;;6.16;100.00
28008;BME280;15333;50.010;20.020;2023-02-24T04:55:29;97911.53;;;6.32;100.00
28008;BME280;15333;50.010;20.020;2023-02-24T04:58:33;97912.41;;;6.20;100.00
28008;BME280;15333;50.010;20.020;2023-02-24T05:01:35;97904.84;;;6.26;100.00
28008;BME280;15333;50.010;20.020;2023-02-24T05:04:39;97898.41;;;6.18;100.00
28008;BME280;15333;50.010;20.020;2023-02-24T05:07:40;97891.50;;;6.15;100.00
28008;BME280;15333;50.010;20.020;2023-02-24T05:10:43;97898.16;;;6.21;100.00
28008;BME280;15333;50.010;20.020;2023-02-24T05:13:45;97895.50;;;6.21;100.00
28008;BME280;15333;50.010;20.020;2023-02-24T05:16:47;97887.88;;;6.16;100.00
28008;BME280;15333;50.010;20.020;2023-02-24T05:19:48;97893.41;;;6.13;100.00
28008;BME280;15333;50.010;20.020;2023-02-24T05:23:07;97889.19;;;6.11;100.00
28008;BME280;15333;50.010;20.020;2023-02-24T05:26:17;97890.44;;;6.18;100.00
28008;BME280;15333;50.010;20.020;2023-02-24T05:29:18;97886.81;;;6.19;100.00
28008;BME280;15333;50.010;20.020;2023-02-24T05:32:19;97887.78;;;6.18;100.00
28008;BME280;15333;50.010;20.020;2023-02-24T05:35:20;97888.50;;;6.20;100.00
28008;BME280;15333;50.010;20.020;2023-02-24T05:38:21;97884.38;;;6.16;100.00
28008;BME280;15333;50.010;20.020;2023-02-24T05:41:24;97885.03;;;6.07;100.00
28008;BME280;15333;50.010;20.020;2023-02-24T05:44:32;97881.88;;;6.02;100.00
28008;BME280;15333;50.010;20.020;2023-02-24T05:47:35;97886.00;;;6.06;100.00
28008;BME280;15333;50.010;20.020;2023-02-24T05:50:36;97886.44;;;6.00;100.00
28008;BME280;15333;50.010;20.020;2023-02-24T05:53:39;97880.81;;;5.92;100.00
28008;BME280;15333;50.010;20.020;2023-02-24T05:56:43;97875.59;;;6.03;100.00
28008;BME280;15333;50.010;20.020;2023-02-24T05:59:44;97877.50;;;6.01;100.00
28008;BME280;15333;50.010;20.020;2023-02-24T06:02:45;97876.63;;;6.13;100.00
28008;BME280;15333;50.010;20.020;2023-02-24T06:05:52;97870.81;;;6.08;100.00
28008;BME280;15333;50.010;20.020;2023-02-24T06:08:53;97861.56;;;6.01;100.00
28008;BME280;15333;50.010;20.020;2023-02-24T06:11:54;97859.97;;;6.11;100.00
28008;BME280;15333;50.010;20.020;2023-02-24T06:14:56;97858.47;;;6.07;100.00
28008;BME280;15333;50.010;20.020;2023-02-24T06:18:00;97849.03;;;6.03;100.00
28008;BME280;15333;50.010;20.020;2023-02-24T06:21:02;97845.44;;;6.04;100.00
28008;BME280;15333;50.010;20.020;2023-02-24T06:24:03;97843.72;;;6.03;100.00
28008;BME280;15333;50.010;20.020;2023-02-24T06:27:05;97839.66;;;6.10;100.00
28008;BME280;15333;50.010;20.020;2023-02-24T06:30:10;97826.94;;;6.02;100.00
28008;BME280;15333;50.010;20.020;2023-02-24T06:33:11;97836.28;;;6.08;100.00
28008;BME280;15333;50.010;20.020;2023-02-24T06:36:13;97836.84;;;6.24;100.00
28008;BME280;15333;50.010;20.020;2023-02-24T06:39:14;97836.00;;;6.23;100.00
28008;BME280;15333;50.010;20.020;2023-02-24T06:42:16;97828.53;;;6.28;100.00
28008;BME280;15333;50.010;20.020;2023-02-24T06:45:17;97825.50;;;6.46;100.00
28008;BME280;15333;50.010;20.020;2023-02-24T06:48:18;97821.84;;;6.47;100.00
28008;BME280;15333;50.010;20.020;2023-02-24T06:51:19;97828.00;;;6.47;100.00
28008;BME280;15333;50.010;20.020;2023-02-24T06:54:22;97812.81;;;6.49;100.00
28008;BME280;15333;50.010;20.020;2023-02-24T06:57:23;97809.47;;;6.58;100.00
28008;BME280;15333;50.010;20.020;2023-02-24T07:00:29;97806.44;;;6.63;100.00
28008;BME280;15333;50.010;20.020;2023-02-24T07:03:36;97806.38;;;6.76;100.00
28008;BME280;15333;50.010;20.020;2023-02-24T07:06:49;97797.69;;;6.74;100.00
28008;BME280;15333;50.010;20.020;2023-02-24T07:09:52;97802.72;;;6.65;100.00
28008;BME280;15333;50.010;20.020;2023-02-24T07:12:52;97799.97;;;6.78;100.00
28008;BME280;15333;50.010;20.020;2023-02-24T07:15:54;97799.38;;;6.75;100.00
28008;BME280;15333;50.010;20.020;2023-02-24T07:18:57;97793.31;;;6.73;100.00
28008;BME280;15333;50.010;20.020;2023-02-24T07:22:00;97791.78;;;6.81;100.00
28008;BME280;15333;50.010;20.020;2023-02-24T07:25:03;97787.63;;;6.77;100.00
28008;BME280;15333;50.010;20.020;2023-02-24T07:28:06;97783.44;;;6.75;100.00
28008;BME280;15333;50.010;20.020;2023-02-24T07:31:09;97785.47;;;6.82;100.00
28008;BME280;15333;50.010;20.020;2023-02-24T07:34:11;97777.63;;;6.81;100.00
28008;BME280;15333;50.010;20.020;2023-02-24T07:37:14;97773.16;;;6.81;100.00
28008;BME280;15333;50.010;20.020;2023-02-24T07:40:17;97774.03;;;6.93;100.00
28008;BME280;15333;50.010;20.020;2023-02-24T07:43:21;97761.84;;;7.01;100.00
28008;BME280;15333;50.010;20.020;2023-02-24T07:46:25;97767.75;;;7.05;100.00
28008;BME280;15333;50.010;20.020;2023-02-24T07:49:27;97762.69;;;7.13;100.00
28008;BME280;15333;50.010;20.020;2023-02-24T07:52:30;97761.97;;;7.22;100.00
28008;BME280;15333;50.010;20.020;2023-02-24T07:55:35;97761.00;;;7.45;100.00
28008;BME280;15333;50.010;20.020;2023-02-24T07:58:36;97753.25;;;7.65;100.00
28008;BME280;15333;50.010;20.020;2023-02-24T08:01:38;97757.72;;;7.64;100.00
28008;BME280;15333;50.010;20.020;2023-02-24T08:04:39;97753.47;;;7.73;100.00
28008;BME280;15333;50.010;20.020;2023-02-24T08:07:44;97750.88;;;7.82;100.00
28008;BME280;15333;50.010;20.020;2023-02-24T08:10:49;97747.88;;;7.76;100.00
28008;BME280;15333;50.010;20.020;2023-02-24T08:13:52;97746.28;;;7.84;100.00
28008;BME280;15333;50.010;20.020;2023-02-24T08:16:54;97748.72;;;7.88;100.00
28008;BME280;15333;50.010;20.020;2023-02-24T08:20:01;97742.53;;;7.87;100.00
28008;BME280;15333;50.010;20.020;2023-02-24T08:23:14;97744.47;;;7.85;100.00
28008;BME280;15333;50.010;20.020;2023-02-24T08:26:15;97737.91;;;8.00;99.93
28008;BME280;15333;50.010;20.020;2023-02-24T08:29:16;97739.59;;;8.01;100.00
28008;BME280;15333;50.010;20.020;2023-02-24T08:32:20;97726.84;;;8.16;100.00
28008;BME280;15333;50.010;20.020;2023-02-24T08:35:28;97730.53;;;8.36;99.01
28008;BME280;15333;50.010;20.020;2023-02-24T08:38:35;97721.94;;;8.53;97.94
28008;BME280;15333;50.010;20.020;2023-02-24T08:41:39;97724.38;;;8.56;97.67
28008;BME280;15333;50.010;20.020;2023-02-24T08:44:50;97708.16;;;8.69;96.49
28008;BME280;15333;50.010;20.020;2023-02-24T08:47:54;97719.47;;;8.82;94.91
28008;BME280;15333;50.010;20.020;2023-02-24T08:51:06;97707.19;;;8.90;93.53
28008;BME280;15333;50.010;20.020;2023-02-24T08:54:14;97707.25;;;9.10;91.33
28008;BME280;15333;50.010;20.020;2023-02-24T08:57:15;97711.44;;;9.02;90.82
28008;BME280;15333;50.010;20.020;2023-02-24T09:00:18;97715.19;;;9.21;89.94
28008;BME280;15333;50.010;20.020;2023-02-24T09:03:38;97702.66;;;9.12;89.89
28008;BME280;15333;50.010;20.020;2023-02-24T09:06:48;97697.75;;;9.17;88.20
28008;BME280;15333;50.010;20.020;2023-02-24T09:09:50;97696.78;;;9.18;88.40
28008;BME280;15333;50.010;20.020;2023-02-24T09:12:55;97695.72;;;9.30;86.67
28008;BME280;15333;50.010;20.020;2023-02-24T09:15:56;97693.66;;;9.53;84.16
28008;BME280;15333;50.010;20.020;2023-02-24T09:18:57;97684.97;;;9.51;84.25
28008;BME280;15333;50.010;20.020;2023-02-24T09:22:19;97682.84;;;9.54;83.91
28008;BME280;15333;50.010;20.020;2023-02-24T09:25:53;97684.97;;;9.60;84.13
28008;BME280;15333;50.010;20.020;2023-02-24T09:28:54;97684.72;;;9.63;83.51
28008;BME280;15333;50.010;20.020;2023-02-24T09:32:03;97675.13;;;9.51;83.48
28008;BME280;15333;50.010;20.020;2023-02-24T09:35:04;97675.09;;;9.41;84.61
28008;BME280;15333;50.010;20.020;2023-02-24T09:38:05;97675.66;;;9.45;84.83
28008;BME280;15333;50.010;20.020;2023-02-24T09:41:28;97672.00;;;9.46;84.99
28008;BME280;15333;50.010;20.020;2023-02-24T09:44:42;97668.91;;;9.41;84.28
28008;BME280;15333;50.010;20.020;2023-02-24T09:47:45;97657.13;;;9.43;84.20
28008;BME280;15333;50.010;20.020;2023-02-24T09:50:56;97651.50;;;9.56;84.12
28008;BME280;15333;50.010;20.020;2023-02-24T09:54:15;97659.94;;;9.61;84.03
28008;BME280;15333;50.010;20.020;2023-02-24T09:57:21;97654.38;;;9.83;82.24
28008;BME280;15333;50.010;20.020;2023-02-24T10:00:24;97643.66;;;9.83;81.37
28008;BME280;15333;50.010;20.020;2023-02-24T10:03:40;97645.38;;;10.04;80.94
28008;BME280;15333;50.010;20.020;2023-02-24T10:06:49;97640.88;;;10.24;79.89
28008;BME280;15333;50.010;20.020;2023-02-24T10:09:58;97642.31;;;10.37;79.60
28008;BME280;15333;50.010;20.020;2023-02-24T10:13:22;97641.47;;;10.27;79.38
28008;BME280;15333;50.010;20.020;2023-02-24T10:16:35;97635.25;;;10.17;79.07
28008;BME280;15333;50.010;20.020;2023-02-24T10:19:43;97638.66;;;10.19;80.35
28008;BME280;15333;50.010;20.020;2023-02-24T10:22:52;97632.72;;;10.25;80.21
28008;BME280;15333;50.010;20.020;2023-02-24T10:26:01;97632.16;;;10.31;79.10
28008;BME280;15333;50.010;20.020;2023-02-24T10:29:06;97625.94;;;10.50;78.27
28008;BME280;15333;50.010;20.020;2023-02-24T10:32:27;97610.44;;;10.53;78.89
28008;BME280;15333;50.010;20.020;2023-02-24T10:35:33;97614.34;;;10.59;77.82
28008;BME280;15333;50.010;20.020;2023-02-24T10:38:38;97610.16;;;10.56;78.16
28008;BME280;15333;50.010;20.020;2023-02-24T10:41:43;97602.00;;;10.48;79.20
28008;BME280;15333;50.010;20.020;2023-02-24T10:44:47;97600.25;;;10.67;78.96
28008;BME280;15333;50.010;20.020;2023-02-24T10:47:57;97587.84;;;10.75;78.10
28008;BME280;15333;50.010;20.020;2023-02-24T10:50:58;97579.66;;;10.77;79.03
28008;BME280;15333;50.010;20.020;2023-02-24T10:54:24;97567.28;;;11.30;78.35
28008;BME280;15333;50.010;20.020;2023-02-24T10:57:44;97563.16;;;11.09;76.92
28008;BME280;15333;50.010;20.020;2023-02-24T11:01:02;97560.13;;;11.49;75.43
28008;BME280;15333;50.010;20.020;2023-02-24T11:04:14;97551.19;;;11.30;76.19
28008;BME280;15333;50.010;20.020;2023-02-24T11:07:32;97548.75;;;11.19;75.93
28008;BME280;15333;50.010;20.020;2023-02-24T11:10:43;97550.22;;;10.77;78.40
28008;BME280;15333;50.010;20.020;2023-02-24T11:14:00;97537.47;;;11.16;77.88
28008;BME280;15333;50.010;20.020;2023-02-24T11:17:21;97533.38;;;11.21;76.94
28008;BME280;15333;50.010;20.020;2023-02-24T11:20:35;97521.34;;;11.25;77.41
28008;BME280;15333;50.010;20.020;2023-02-24T11:26:40;97511.91;;;11.49;75.54
28008;BME280;15333;50.010;20.020;2023-02-24T11:29:53;97507.53;;;11.48;75.56
28008;BME280;15333;50.010;20.020;2023-02-24T11:43:18;97483.97;;;12.12;72.44
28008;BME280;15333;50.010;20.020;2023-02-24T11:46:33;97479.41;;;11.52;74.20
28008;BME280;15333;50.010;20.020;2023-02-24T11:49:45;97478.84;;;11.22;76.22
28008;BME280;15333;50.010;20.020;2023-02-24T11:52:51;97464.97;;;11.27;76.81
28008;BME280;15333;50.010;20.020;2023-02-24T11:55:59;97457.69;;;11.19;76.88
28008;BME280;15333;50.010;20.020;2023-02-24T11:59:19;97459.59;;;11.45;76.05
28008;BME280;15333;50.010;20.020;2023-02-24T12:03:03;97445.13;;;11.37;76.55
28008;BME280;15333;50.010;20.020;2023-02-24T12:06:15;97450.13;;;11.50;76.38
28008;BME280;15333;50.010;20.020;2023-02-24T12:09:20;97442.53;;;11.46;75.38
28008;BME280;15333;50.010;20.020;2023-02-24T12:12:40;97435.16;;;11.83;75.64
28008;BME280;15333;50.010;20.020;2023-02-24T12:15:48;97444.44;;;11.53;74.76
28008;BME280;15333;50.010;20.020;2023-02-24T12:19:30;97436.25;;;11.55;75.00
28008;BME280;15333;50.010;20.020;2023-02-24T12:22:45;97438.78;;;11.38;75.22
28008;BME280;15333;50.010;20.020;2023-02-24T12:33:00;97425.94;;;11.24;76.09
28008;BME280;15333;50.010;20.020;2023-02-24T12:39:13;97417.97;;;11.32;76.34
28008;BME280;15333;50.010;20.020;2023-02-24T12:49:03;97411.81;;;11.14;74.66
28008;BME280;15333;50.010;20.020;2023-02-24T12:52:23;97411.81;;;11.14;74.70
28008;BME280;15333;50.010;20.020;2023-02-24T12:55:45;97403.97;;;11.03;73.81
28008;BME280;15333;50.010;20.020;2023-02-24T12:59:02;97390.38;;;11.14;74.54
28008;BME280;15333;50.010;20.020;2023-02-24T13:05:31;97384.25;;;11.04;74.82
28008;BME280;15333;50.010;20.020;2023-02-24T13:09:30;97380.44;;;11.07;73.58
28008;BME280;15333;50.010;20.020;2023-02-24T13:12:16;97389.28;;;10.89;74.40
28008;BME280;15333;50.010;20.020;2023-02-24T13:15:21;97384.41;;;10.85;75.55
28008;BME280;15333;50.010;20.020;2023-02-24T13:18:28;97389.56;;;10.69;77.03
28008;BME280;15333;50.010;20.020;2023-02-24T13:21:29;97376.91;;;10.71;77.86
28008;BME280;15333;50.010;20.020;2023-02-24T13:24:32;97383.75;;;10.55;77.11
28008;BME280;15333;50.010;20.020;2023-02-24T13:27:42;97378.34;;;10.83;76.84
28008;BME280;15333;50.010;20.020;2023-02-24T13:30:44;97371.09;;;10.75;76.13
28008;BME280;15333;50.010;20.020;2023-02-24T13:33:45;97368.34;;;10.85;76.92
28008;BME280;15333;50.010;20.020;2023-02-24T13:36:48;97357.25;;;11.15;74.90
28008;BME280;15333;50.010;20.020;2023-02-24T13:39:49;97353.31;;;11.27;74.82
28008;BME280;15333;50.010;20.020;2023-02-24T13:46:00;97359.09;;;11.15;76.03
28008;BME280;15333;50.010;20.020;2023-02-24T13:49:28;97344.22;;;11.20;75.18
28008;BME280;15333;50.010;20.020;2023-02-24T13:53:07;97346.41;;;11.43;74.47
28008;BME280;15333;50.010;20.020;2023-02-24T14:00:05;97331.28;;;11.33;73.39
28008;BME280;15333;50.010;20.020;2023-02-24T14:03:19;97334.66;;;11.35;73.67
28008;BME280;15333;50.010;20.020;2023-02-24T14:06:25;97324.44;;;11.13;74.46
28008;BME280;15333;50.010;20.020;2023-02-24T14:09:32;97326.75;;;11.08;72.82
28008;BME280;15333;50.010;20.020;2023-02-24T14:12:34;97326.44;;;10.93;73.00
28008;BME280;15333;50.010;20.020;2023-02-24T14:15:40;97321.84;;;10.86;73.05
28008;BME280;15333;50.010;20.020;2023-02-24T14:18:51;97326.44;;;10.76;73.64
28008;BME280;15333;50.010;20.020;2023-02-24T14:21:53;97317.41;;;10.77;73.72
28008;BME280;15333;50.010;20.020;2023-02-24T14:25:04;97324.09;;;10.73;75.08
28008;BME280;15333;50.010;20.020;2023-02-24T14:28:19;97313.06;;;10.76;74.32
28008;BME280;15333;50.010;20.020;2023-02-24T14:31:22;97310.38;;;10.76;74.18
28008;BME280;15333;50.010;20.020;2023-02-24T14:34:27;97316.81;;;10.83;73.07
28008;BME280;15333;50.010;20.020;2023-02-24T14:37:30;97300.13;;;10.89;74.08
28008;BME280;15333;50.010;20.020;2023-02-24T14:40:31;97295.09;;;10.86;73.83
28008;BME280;15333;50.010;20.020;2023-02-24T14:43:39;97281.94;;;10.75;74.43
28008;BME280;15333;50.010;20.020;2023-02-24T14:46:46;97272.91;;;10.76;74.11
28008;BME280;15333;50.010;20.020;2023-02-24T14:49:57;97281.19;;;10.65;74.08
28008;BME280;15333;50.010;20.020;2023-02-24T14:53:05;97256.59;;;10.43;74.17
28008;BME280;15333;50.010;20.020;2023-02-24T14:56:08;97245.88;;;10.43;74.05
28008;BME280;15333;50.010;20.020;2023-02-24T14:59:30;97244.81;;;10.36;74.02
28008;BME280;15333;50.010;20.020;2023-02-24T15:02:32;97247.63;;;10.35;74.35
28008;BME280;15333;50.010;20.020;2023-02-24T15:05:39;97246.31;;;10.21;74.78
28008;BME280;15333;50.010;20.020;2023-02-24T15:08:44;97247.47;;;10.18;75.22
28008;BME280;15333;50.010;20.020;2023-02-24T15:11:47;97246.00;;;10.24;74.81
28008;BME280;15333;50.010;20.020;2023-02-24T15:14:53;97245.22;;;10.14;74.97
28008;BME280;15333;50.010;20.020;2023-02-24T15:18:09;97236.13;;;10.07;75.02
28008;BME280;15333;50.010;20.020;2023-02-24T15:21:27;97234.81;;;10.11;74.98
28008;BME280;15333;50.010;20.020;2023-02-24T15:24:32;97233.75;;;10.04;75.21
28008;BME280;15333;50.010;20.020;2023-02-24T15:27:33;97230.38;;;10.02;75.55
28008;BME280;15333;50.010;20.020;2023-02-24T15:30:51;97230.38;;;10.02;75.62
28008;BME280;15333;50.010;20.020;2023-02-24T15:33:58;97227.31;;;9.97;75.64
28008;BME280;15333;50.010;20.020;2023-02-24T15:37:14;97221.97;;;9.97;75.60
28008;BME280;15333;50.010;20.020;2023-02-24T15:40:21;97222.44;;;9.92;76.10
28008;BME280;15333;50.010;20.020;2023-02-24T15:43:36;97212.16;;;9.88;76.45
28008;BME280;15333;50.010;20.020;2023-02-24T15:46:37;97217.50;;;9.88;76.11
28008;BME280;15333;50.010;20.020;2023-02-24T15:49:39;97224.25;;;9.92;76.15
28008;BME280;15333;50.010;20.020;2023-02-24T15:52:42;97227.69;;;9.84;76.53
28008;BME280;15333;50.010;20.020;2023-02-24T15:55:44;97240.41;;;9.72;77.68
28008;BME280;15333;50.010;20.020;2023-02-24T15:58:45;97252.56;;;9.57;79.67
28008;BME280;15333;50.010;20.020;2023-02-24T16:01:46;97257.25;;;9.09;87.64
28008;BME280;15333;50.010;20.020;2023-02-24T16:04:48;97266.84;;;8.63;95.53
28008;BME280;15333;50.010;20.020;2023-02-24T16:07:50;97259.50;;;8.26;100.00
28008;BME280;15333;50.010;20.020;2023-02-24T16:10:51;97247.84;;;8.08;100.00
28008;BME280;15333;50.010;20.020;2023-02-24T16:13:57;97230.84;;;7.90;100.00
28008;BME280;15333;50.010;20.020;2023-02-24T16:17:02;97229.72;;;7.73;100.00
28008;BME280;15333;50.010;20.020;2023-02-24T16:20:26;97209.50;;;7.71;100.00
28008;BME280;15333;50.010;20.020;2023-02-24T16:23:30;97210.31;;;7.62;100.00
28008;BME280;15333;50.010;20.020;2023-02-24T16:26:38;97206.63;;;7.43;100.00
28008;BME280;15333;50.010;20.020;2023-02-24T16:29:40;97208.88;;;7.38;100.00
28008;BME280;15333;50.010;20.020;2023-02-24T16:32:41;97208.88;;;7.38;100.00
28008;BME280;15333;50.010;20.020;2023-02-24T16:35:42;97203.81;;;7.35;100.00
28008;BME280;15333;50.010;20.020;2023-02-24T16:38:44;97202.47;;;7.51;100.00
28008;BME280;15333;50.010;20.020;2023-02-24T16:41:45;97196.25;;;7.40;100.00
28008;BME280;15333;50.010;20.020;2023-02-24T16:44:47;97187.84;;;7.35;100.00
28008;BME280;15333;50.010;20.020;2023-02-24T16:47:48;97182.50;;;7.35;100.00
28008;BME280;15333;50.010;20.020;2023-02-24T16:50:50;97183.00;;;7.60;100.00
28008;BME280;15333;50.010;20.020;2023-02-24T16:53:51;97178.50;;;7.51;100.00
28008;BME280;15333;50.010;20.020;2023-02-24T16:56:52;97180.81;;;7.34;100.00
28008;BME280;15333;50.010;20.020;2023-02-24T16:59:53;97168.78;;;7.30;100.00
28008;BME280;15333;50.010;20.020;2023-02-24T17:02:54;97168.56;;;7.53;100.00
28008;BME280;15333;50.010;20.020;2023-02-24T17:05:55;97165.78;;;7.64;100.00
28008;BME280;15333;50.010;20.020;2023-02-24T17:08:57;97153.84;;;7.68;100.00
28008;BME280;15333;50.010;20.020;2023-02-24T17:11:58;97166.34;;;7.58;100.00
28008;BME280;15333;50.010;20.020;2023-02-24T17:15:00;97160.44;;;7.64;100.00
28008;BME280;15333;50.010;20.020;2023-02-24T17:18:01;97163.41;;;7.70;100.00
28008;BME280;15333;50.010;20.020;2023-02-24T17:21:02;97161.72;;;7.60;100.00